Time;durP1;ratioP1;P1;durP2;ratioP2;P2;SDS_P1;SDS_P2;PMS_P1;PMS_P2;Temp;Humidity;BMP_temperature;BMP_pressure;BME280_temperature;BME280_humidity;BME280_pressure;Samples;Min_cycle;Max_cycle;Signal;HPM_P1;HPM_P2
2022/06/10 00:01:04;;;;;;;16.98;9.43;;;;;;;17.70;64.07;101487.56;4973421;28;120126;-78
2022/06/10 00:03:30;;;;;;;15.10;7.45;;;;;;;17.74;64.40;101493.69;4973566;28;121815;-78
2022/06/10 00:06:04;;;;;;;15.25;6.93;;;;;;;17.76;64.40;101496.00;4965842;28;119654;-78
2022/06/10 00:08:39;;;;;;;12.85;6.63;;;;;;;17.76;64.20;101487.66;4987843;28;120016;-80
2022/06/10 00:11:07;;;;;;;11.95;5.72;;;;;;;17.75;64.32;101489.66;4992257;28;120502;-79
2022/06/10 00:13:35;;;;;;;8.40;5.90;;;;;;;17.76;64.35;101491.19;4989979;28;119749;-79
2022/06/10 00:16:01;;;;;;;11.00;5.82;;;;;;;17.77;64.27;101489.97;4987714;28;119910;-79
2022/06/10 00:18:30;;;;;;;12.30;5.70;;;;;;;17.78;63.79;101493.50;4983335;28;120098;-80
2022/06/10 00:20:57;;;;;;;13.60;5.88;;;;;;;17.78;63.74;101499.81;4988565;28;119453;-78
2022/06/10 00:23:23;;;;;;;11.27;5.90;;;;;;;17.78;63.89;101502.59;4981001;28;119701;-78
2022/06/10 00:25:48;;;;;;;12.18;5.95;;;;;;;17.77;63.91;101508.63;4982930;28;120246;-79
2022/06/10 00:28:15;;;;;;;11.38;6.00;;;;;;;17.78;64.35;101502.59;4986522;28;119559;-78
2022/06/10 00:30:42;;;;;;;12.43;6.45;;;;;;;17.80;64.35;101507.66;4981932;28;119970;-78
2022/06/10 00:33:08;;;;;;;10.63;5.93;;;;;;;17.82;64.11;101512.72;4982351;28;120104;-79
2022/06/10 00:35:35;;;;;;;12.65;6.38;;;;;;;17.81;64.33;101498.06;4989893;28;120352;-79
2022/06/10 00:38:01;;;;;;;12.68;6.53;;;;;;;17.84;64.27;101501.91;4990750;28;120019;-79
2022/06/10 00:40:31;;;;;;;9.63;5.97;;;;;;;17.85;63.89;101518.06;4992241;28;121293;-79
2022/06/10 00:42:58;;;;;;;11.43;5.68;;;;;;;17.79;64.07;101503.34;4993815;28;119518;-79
2022/06/10 00:45:48;;;;;;;7.85;5.22;;;;;;;17.88;64.02;101521.88;4991619;28;119690;-79
2022/06/10 00:48:19;;;;;;;13.32;6.68;;;;;;;17.86;64.80;101516.81;4994634;28;119683;-78
2022/06/10 00:50:49;;;;;;;15.52;6.70;;;;;;;17.84;64.27;101510.22;4979514;28;120638;-79
2022/06/10 00:53:22;;;;;;;13.02;6.68;;;;;;;17.88;64.21;101513.56;5002390;28;119534;-79
2022/06/10 00:55:55;;;;;;;11.15;6.53;;;;;;;17.84;64.21;101515.78;4980802;27;119942;-78
2022/06/10 00:58:31;;;;;;;11.63;6.67;;;;;;;17.84;64.36;101524.88;4978906;28;120143;-78
2022/06/10 01:00:58;;;;;;;14.30;7.03;;;;;;;17.76;64.43;101518.94;4984942;28;119541;-78
2022/06/10 01:03:23;;;;;;;11.18;6.63;;;;;;;17.85;64.67;101523.63;4995259;28;119997;-79
2022/06/10 01:05:52;;;;;;;14.18;6.50;;;;;;;17.81;64.56;101516.75;4992515;28;120115;-79
2022/06/10 01:08:21;;;;;;;8.98;6.43;;;;;;;17.84;64.51;101529.66;4981264;28;119573;-79
2022/06/10 01:11:02;;;;;;;14.13;6.45;;;;;;;17.85;64.63;101531.19;4981148;28;120114;-79
2022/06/10 01:13:36;;;;;;;13.43;6.65;;;;;;;17.86;64.98;101518.84;4993311;28;119980;-79
2022/06/10 01:16:37;;;;;;;9.00;6.50;;;;;;;17.85;64.78;101522.84;4990044;28;119706;-78
2022/06/10 01:19:33;;;;;;;10.77;6.95;;;;;;;17.83;65.19;101519.78;4988156;28;122372;-79
2022/06/10 01:22:50;;;;;;;12.63;6.95;;;;;;;17.82;65.09;101532.16;4992882;28;119636;-78
2022/06/10 01:25:37;;;;;;;13.52;6.70;;;;;;;17.79;64.97;101531.09;4982505;28;120585;-78
2022/06/10 01:28:03;;;;;;;13.23;6.70;;;;;;;17.78;64.86;101524.00;4982807;28;119755;-78
2022/06/10 01:30:50;;;;;;;12.05;6.80;;;;;;;17.77;65.11;101519.72;4970064;28;119943;-79
2022/06/10 01:33:38;;;;;;;11.77;6.43;;;;;;;17.75;64.81;101519.44;4991726;28;120495;-78
2022/06/10 01:36:16;;;;;;;12.73;7.35;;;;;;;17.74;65.08;101526.19;4962222;28;119839;-79
2022/06/10 01:38:51;;;;;;;14.35;7.40;;;;;;;17.71;65.24;101527.16;4974281;28;120975;-78
2022/06/10 01:41:20;;;;;;;9.45;6.88;;;;;;;17.71;65.60;101532.72;4987835;28;119518;-79
2022/06/10 01:43:53;;;;;;;12.00;7.13;;;;;;;17.71;65.37;101532.72;4998797;28;119641;-79
2022/06/10 01:46:27;;;;;;;15.68;8.07;;;;;;;17.71;65.58;101527.91;5002197;28;119709;-78
2022/06/10 01:49:09;;;;;;;13.30;7.82;;;;;;;17.72;65.82;101535.00;4984843;28;120426;-78
2022/06/10 01:51:43;;;;;;;13.23;8.27;;;;;;;17.71;65.74;101527.16;4998698;28;119486;-79
2022/06/10 01:54:31;;;;;;;18.50;8.10;;;;;;;17.69;65.26;101524.09;4992250;28;119907;-78
2022/06/10 01:57:02;;;;;;;16.60;7.80;;;;;;;17.61;65.11;101518.16;4979296;28;119601;-79
2022/06/10 01:59:32;;;;;;;13.27;7.82;;;;;;;17.66;64.94;101533.34;4989543;28;119380;-78
2022/06/10 02:02:06;;;;;;;14.55;8.63;;;;;;;17.63;65.13;101529.53;4985480;28;119589;-78
2022/06/10 02:04:40;;;;;;;14.80;8.52;;;;;;;17.61;65.24;101534.81;4991513;28;119594;-79
2022/06/10 02:07:17;;;;;;;14.05;8.20;;;;;;;17.59;64.95;101534.50;4996952;28;119344;-79
2022/06/10 02:09:54;;;;;;;15.57;8.93;;;;;;;17.54;65.37;101529.66;4981722;28;122026;-79
2022/06/10 02:12:30;;;;;;;15.23;8.57;;;;;;;17.55;65.36;101535.97;4987173;28;120422;-79
2022/06/10 02:15:04;;;;;;;21.27;9.23;;;;;;;17.47;65.58;101536.31;4992862;28;120919;-78
2022/06/10 02:17:37;;;;;;;14.35;8.10;;;;;;;17.50;65.22;101543.69;4983078;28;119546;-79
2022/06/10 02:20:05;;;;;;;16.75;9.48;;;;;;;17.48;65.51;101548.94;4979223;28;119445;-78
2022/06/10 02:22:33;;;;;;;14.93;8.75;;;;;;;17.44;65.51;101548.38;4988509;28;119429;-79
2022/06/10 02:25:05;;;;;;;16.08;9.27;;;;;;;17.42;65.48;101545.31;4996940;28;119660;-78
2022/06/10 02:27:37;;;;;;;15.85;8.65;;;;;;;17.38;65.44;101549.53;4993493;28;119497;-78
2022/06/10 02:30:05;;;;;;;17.48;8.60;;;;;;;17.36;65.50;101552.00;4985332;28;121443;-78
2022/06/10 02:32:32;;;;;;;19.33;9.13;;;;;;;17.29;65.59;101541.28;4987206;28;119937;-79
2022/06/10 02:34:59;;;;;;;14.15;9.02;;;;;;;17.28;65.55;101540.53;4978736;28;121573;-79
2022/06/10 02:37:43;;;;;;;14.63;8.63;;;;;;;17.30;65.59;101559.47;4981040;28;119681;-78
2022/06/10 02:40:30;;;;;;;15.75;9.00;;;;;;;17.29;66.03;101552.38;4980756;28;119868;-79
2022/06/10 02:43:34;;;;;;;19.55;9.43;;;;;;;17.27;65.83;101555.63;4991417;28;120835;-78
2022/06/10 02:46:13;;;;;;;17.35;8.30;;;;;;;17.24;66.06;101562.09;4971418;28;119514;-78
2022/06/10 02:48:43;;;;;;;19.58;8.98;;;;;;;17.23;66.30;101573.69;4993909;28;120253;-79
2022/06/10 02:51:09;;;;;;;14.73;9.02;;;;;;;17.17;66.16;101563.25;5002429;28;119973;-79
2022/06/10 02:53:35;;;;;;;15.02;8.50;;;;;;;17.16;66.18;101563.72;4971465;28;119494;-79
2022/06/10 02:56:12;;;;;;;18.70;9.55;;;;;;;17.16;66.13;101567.25;5002003;28;120116;-79
2022/06/10 03:01:35;;;;;;;18.95;9.70;;;;;;;17.16;66.30;101566.50;4991613;28;119975;-81
2022/06/10 03:04:09;;;;;;;16.38;10.23;;;;;;;17.14;66.12;101574.53;4995165;28;119380;-80
2022/06/10 03:06:37;;;;;;;16.85;9.38;;;;;;;17.13;66.57;101571.00;4994443;28;119737;-80
2022/06/10 03:09:25;;;;;;;18.80;9.73;;;;;;;17.11;66.08;101579.00;5000340;28;119378;-81
2022/06/10 03:11:56;;;;;;;17.80;10.10;;;;;;;17.09;66.16;101581.50;4995844;28;120466;-79
2022/06/10 03:14:51;;;;;;;18.83;10.90;;;;;;;17.06;66.69;101573.38;4982328;28;119411;-81
2022/06/10 03:17:25;;;;;;;15.55;10.30;;;;;;;17.01;65.91;101580.31;4998008;28;119503;-79
2022/06/10 03:20:23;;;;;;;;;;;;;;;16.94;65.73;101569.59;4980023;28;119590;-78
2022/06/10 03:23:14;;;;;;;19.40;11.20;;;;;;;16.87;66.03;101575.50;4942211;28;119675;-79
2022/06/10 03:25:46;;;;;;;21.15;11.65;;;;;;;16.80;65.83;101567.56;4976520;28;119430;-80
2022/06/10 03:28:19;;;;;;;19.88;11.73;;;;;;;16.78;65.99;101570.75;4976978;28;119821;-80
2022/06/10 03:31:02;;;;;;;22.13;11.35;;;;;;;16.74;66.02;101572.19;4971767;28;119733;-80
2022/06/10 03:33:41;;;;;;;19.55;11.35;;;;;;;16.69;66.46;101567.28;4986729;28;120247;-80
2022/06/10 03:36:16;;;;;;;19.27;11.38;;;;;;;16.71;66.46;101567.59;4973358;28;119569;-79
2022/06/10 03:38:47;;;;;;;20.40;10.90;;;;;;;16.69;66.66;101572.84;4973091;28;119410;-80
2022/06/10 03:41:33;;;;;;;15.05;10.45;;;;;;;16.70;66.36;101572.38;4991318;28;120397;-79
2022/06/10 03:44:02;;;;;;;17.10;11.77;;;;;;;16.63;66.44;101556.06;4991669;28;119435;-79
2022/06/10 03:46:31;;;;;;;18.58;10.55;;;;;;;16.71;66.26;101575.91;4989947;28;119492;-80
2022/06/10 03:49:01;;;;;;;15.95;10.85;;;;;;;16.70;66.50;101574.38;4986105;28;119842;-80
2022/06/10 03:51:27;;;;;;;20.60;11.43;;;;;;;16.74;66.28;101580.50;4972884;28;119442;-79
2022/06/10 03:53:53;;;;;;;20.40;11.57;;;;;;;16.76;66.69;101583.56;4977269;28;119648;-79
2022/06/10 03:56:23;;;;;;;19.52;11.32;;;;;;;16.83;67.15;101584.00;4971086;28;119469;-79
2022/06/10 03:58:49;;;;;;;17.67;11.13;;;;;;;16.86;66.80;101582.28;4996032;28;119709;-79
2022/06/10 04:01:15;;;;;;;19.60;10.73;;;;;;;16.95;66.96;101589.75;4996985;27;120330;-80
2022/06/10 04:03:41;;;;;;;24.13;11.57;;;;;;;16.91;66.96;101567.00;4993226;28;119623;-80
2022/06/10 04:06:07;;;;;;;19.95;10.65;;;;;;;17.04;67.06;101590.47;4971831;28;120058;-80
2022/06/10 04:08:33;;;;;;;22.58;11.50;;;;;;;17.13;66.61;101600.72;4986408;28;120172;-80
2022/06/10 04:10:59;;;;;;;23.98;11.93;;;;;;;17.17;66.58;101596.53;4973591;28;119619;-80
2022/06/10 04:13:25;;;;;;;21.55;11.27;;;;;;;17.22;66.61;101603.41;4973019;28;120047;-80
2022/06/10 04:15:50;;;;;;;19.80;10.60;;;;;;;17.27;66.63;101599.22;4977900;28;119489;-79
2022/06/10 04:18:16;;;;;;;22.77;11.85;;;;;;;17.21;66.80;101585.25;4972225;28;119709;-80
2022/06/10 04:20:42;;;;;;;23.77;11.43;;;;;;;17.34;67.21;101590.53;4970454;28;121548;-79
2022/06/10 04:23:09;;;;;;;24.23;11.32;;;;;;;17.36;66.89;101591.59;4971763;28;119721;-80
2022/06/10 04:25:38;;;;;;;23.83;10.70;;;;;;;17.42;66.90;101605.56;4992308;28;119789;-79
2022/06/10 04:28:04;;;;;;;22.63;11.23;;;;;;;17.42;66.77;101600.00;4991989;28;119584;-81
2022/06/10 04:30:41;;;;;;;26.63;11.63;;;;;;;17.45;67.21;101601.84;4981052;28;119657;-80
2022/06/10 04:33:07;;;;;;;25.10;11.32;;;;;;;17.51;67.28;101599.94;4975984;28;120213;-79
2022/06/10 04:35:35;;;;;;;21.00;11.90;;;;;;;17.53;67.16;101600.22;4971313;28;119511;-80
2022/06/10 04:38:02;;;;;;;26.55;10.95;;;;;;;17.57;67.36;101602.81;4970533;28;120332;-80
2022/06/10 04:40:30;;;;;;;24.60;11.70;;;;;;;17.57;67.19;101606.34;4961556;28;119447;-78
2022/06/10 04:42:57;;;;;;;25.00;10.95;;;;;;;17.59;66.89;101603.88;4986544;28;119353;-80
2022/06/10 04:45:25;;;;;;;29.60;11.32;;;;;;;17.61;67.22;101606.16;4992689;28;119560;-79
2022/06/10 04:47:55;;;;;;;27.85;11.75;;;;;;;17.57;67.09;101598.03;4984163;28;119901;-81
2022/06/10 04:50:24;;;;;;;25.48;11.15;;;;;;;17.66;67.04;101614.59;4992778;28;119926;-80
2022/06/10 04:52:51;;;;;;;26.33;11.65;;;;;;;17.69;67.46;101612.88;4997650;28;120105;-80
2022/06/10 04:55:21;;;;;;;32.42;12.85;;;;;;;17.71;67.53;101613.94;4987094;27;119820;-81
2022/06/10 04:57:47;;;;;;;24.38;11.63;;;;;;;17.73;67.72;101614.22;4993694;28;119314;-80
2022/06/10 05:00:19;;;;;;;27.55;12.07;;;;;;;17.76;67.76;101615.31;4982288;28;121386;-80
2022/06/10 05:02:46;;;;;;;27.63;12.45;;;;;;;17.76;67.66;101609.75;4972481;28;120055;-80
2022/06/10 05:05:12;;;;;;;25.92;12.02;;;;;;;17.77;67.66;101614.06;4973092;28;120200;-79
2022/06/10 05:07:37;;;;;;;32.97;12.38;;;;;;;17.84;67.61;101613.69;4973799;28;120432;-80
2022/06/10 05:10:05;;;;;;;21.00;11.50;;;;;;;17.87;68.00;101611.94;4986193;28;119611;-80
2022/06/10 05:12:31;;;;;;;24.67;12.65;;;;;;;17.90;68.22;101620.09;4988798;28;119942;-80
2022/06/10 05:14:56;;;;;;;29.85;13.30;;;;;;;17.93;67.76;101619.13;4974864;28;119582;-80
2022/06/10 05:17:22;;;;;;;26.77;12.00;;;;;;;17.94;67.84;101614.34;4975421;28;119694;-80
2022/06/10 05:19:48;;;;;;;30.05;12.43;;;;;;;17.99;68.08;101614.44;4974586;28;119450;-78
2022/06/10 05:22:15;;;;;;;25.50;12.50;;;;;;;17.96;68.20;101604.28;4973896;28;119734;-80
2022/06/10 05:24:42;;;;;;;24.23;12.75;;;;;;;18.04;68.51;101615.78;4991756;28;119643;-80
2022/06/10 05:27:08;;;;;;;29.60;12.80;;;;;;;18.04;68.22;101602.66;4975991;28;119430;-80
2022/06/10 05:29:35;;;;;;;28.13;11.68;;;;;;;18.09;68.46;101606.78;4978169;28;119428;-80
2022/06/10 05:32:00;;;;;;;32.97;12.30;;;;;;;18.14;68.38;101608.88;4984421;28;120155;-81
2022/06/10 05:34:45;;;;;;;27.35;11.10;;;;;;;18.12;67.53;101610.59;4988220;28;120295;-80
2022/06/10 05:37:11;;;;;;;;;;;;;;;18.15;67.20;101615.19;4979573;28;120472;-80
2022/06/10 05:39:36;;;;;;;24.02;11.15;;;;;;;18.18;67.46;101609.44;4985213;28;120285;-81
2022/06/10 05:42:06;;;;;;;27.65;11.55;;;;;;;18.11;67.68;101593.16;4981301;28;120137;-80
2022/06/10 05:44:41;;;;;;;23.52;12.23;;;;;;;18.25;67.78;101611.84;4981858;28;119499;-80
2022/06/10 05:47:10;;;;;;;27.45;12.38;;;;;;;18.28;68.01;101613.66;4983845;28;120324;-80
2022/06/10 05:49:39;;;;;;;24.88;11.90;;;;;;;18.31;68.17;101615.47;4997628;28;120418;-80
2022/06/10 05:52:06;;;;;;;21.15;11.88;;;;;;;18.34;67.73;101622.06;4986671;28;119560;-81
2022/06/10 05:54:33;;;;;;;26.67;12.15;;;;;;;18.34;67.22;101614.50;4981715;28;119889;-79
2022/06/10 05:56:59;;;;;;;32.72;11.85;;;;;;;18.33;66.92;101621.28;4984525;28;119539;-81
2022/06/10 05:59:29;;;;;;;24.88;12.05;;;;;;;18.35;67.23;101624.34;4983534;28;119533;-81
2022/06/10 06:01:56;;;;;;;29.63;11.65;;;;;;;18.33;66.92;101620.53;4959480;28;120057;-80
2022/06/10 06:04:23;;;;;;;28.48;11.38;;;;;;;18.42;67.04;101623.94;4983265;28;120403;-80
2022/06/10 06:06:49;;;;;;;27.60;11.38;;;;;;;18.46;67.02;101623.78;4974359;28;119646;-79
2022/06/10 06:09:14;;;;;;;31.05;11.15;;;;;;;18.47;67.35;101625.31;4984090;28;119752;-80
2022/06/10 06:11:41;;;;;;;20.85;10.52;;;;;;;18.46;67.48;101625.78;4977730;28;119364;-80
2022/06/10 06:14:07;;;;;;;24.35;10.55;;;;;;;18.55;67.39;101637.53;4990386;28;120364;-80
2022/06/10 06:16:35;;;;;;;19.52;9.30;;;;;;;18.54;67.85;101633.22;4983949;28;119689;-80
2022/06/10 06:19:01;;;;;;;26.63;10.57;;;;;;;18.62;67.83;101630.81;4979990;28;121079;-80
2022/06/10 06:21:27;;;;;;;28.90;10.25;;;;;;;18.65;67.52;101627.09;4978889;28;120313;-79
2022/06/10 06:23:53;;;;;;;22.65;9.80;;;;;;;18.67;67.75;101633.69;4968637;28;119709;-80
2022/06/10 06:26:19;;;;;;;26.90;9.63;;;;;;;18.70;67.31;101627.19;4980016;28;121216;-80
2022/06/10 06:28:45;;;;;;;33.45;9.40;;;;;;;18.70;67.29;101623.63;4981995;28;119384;-80
2022/06/10 06:31:11;;;;;;;22.88;8.25;;;;;;;18.70;66.92;101629.19;4965480;28;120151;-80
2022/06/10 06:33:37;;;;;;;24.65;8.13;;;;;;;18.75;66.83;101634.06;4979371;28;119422;-80
2022/06/10 06:36:04;;;;;;;21.02;7.47;;;;;;;18.76;66.76;101638.38;4989081;28;120375;-80
2022/06/10 06:38:30;;;;;;;27.30;8.68;;;;;;;18.80;66.77;101630.59;4979530;28;120211;-80
2022/06/10 06:40:56;;;;;;;20.65;7.45;;;;;;;18.84;66.56;101636.69;4978130;28;119663;-80
2022/06/10 06:43:22;;;;;;;19.83;7.35;;;;;;;18.82;66.91;101630.09;4980888;28;121101;-80
2022/06/10 06:45:48;;;;;;;19.60;6.65;;;;;;;18.88;66.88;101639.28;4989576;28;119968;-81
2022/06/10 06:48:17;;;;;;;22.85;6.78;;;;;;;18.92;66.43;101632.25;4976199;28;119653;-81
2022/06/10 06:50:49;;;;;;;22.47;6.97;;;;;;;18.95;66.46;101641.66;4957578;28;119599;-80
2022/06/10 06:53:15;;;;;;;19.17;7.65;;;;;;;18.92;66.44;101632.25;4987250;28;119648;-80
2022/06/10 06:55:41;;;;;;;22.27;7.75;;;;;;;18.97;66.80;101639.91;4983835;28;119556;-80
2022/06/10 06:58:11;;;;;;;17.85;6.70;;;;;;;18.98;66.57;101644.22;4977960;28;119872;-80
2022/06/10 07:00:37;;;;;;;18.42;6.40;;;;;;;19.06;66.16;101652.16;5001453;28;119611;-80
2022/06/10 07:03:04;;;;;;;20.92;6.10;;;;;;;19.09;65.92;101645.63;4977537;28;121056;-80
2022/06/10 07:05:31;;;;;;;19.25;7.25;;;;;;;19.12;65.99;101639.84;4972630;28;122206;-81
2022/06/10 07:07:58;;;;;;;24.15;6.57;;;;;;;19.13;65.82;101646.94;4994108;28;119417;-80
2022/06/10 07:10:25;;;;;;;19.98;6.03;;;;;;;19.16;65.83;101634.06;4993375;28;119947;-80
2022/06/10 07:12:51;;;;;;;13.18;5.63;;;;;;;19.24;65.86;101654.66;4986832;28;119647;-80
2022/06/10 07:15:18;;;;;;;21.92;5.88;;;;;;;19.27;65.33;101645.34;4973675;28;119783;-80
2022/06/10 07:17:44;;;;;;;21.65;6.30;;;;;;;19.28;65.07;101646.88;4974077;28;119567;-80
2022/06/10 07:20:18;;;;;;;20.48;6.22;;;;;;;19.30;64.75;101644.38;4990046;28;120588;-80
2022/06/10 07:22:44;;;;;;;;;;;;;;;19.29;64.92;101640.81;4977741;28;119685;-80
2022/06/10 07:25:10;;;;;;;14.20;5.05;;;;;;;19.35;65.29;101635.31;4990407;28;119934;-80
2022/06/10 07:27:36;;;;;;;14.43;4.68;;;;;;;19.40;65.35;101637.41;4993664;28;119951;-80
2022/06/10 07:30:07;;;;;;;15.80;4.63;;;;;;;19.37;64.01;101634.81;4988268;28;119530;-79
2022/06/10 07:32:32;;;;;;;13.80;4.28;;;;;;;19.46;63.69;101652.16;4974150;28;120054;-80
2022/06/10 07:35:01;;;;;;;13.55;3.97;;;;;;;19.49;63.59;101651.16;4972911;28;119495;-80
2022/06/10 07:37:27;;;;;;;13.52;4.22;;;;;;;19.52;64.21;101644.63;4971897;28;119873;-80
2022/06/10 07:39:53;;;;;;;14.65;4.43;;;;;;;19.54;64.13;101639.34;4983559;28;119366;-80
2022/06/10 07:42:18;;;;;;;13.38;4.20;;;;;;;19.60;64.18;101637.38;5000808;27;120001;-81
2022/06/10 07:44:44;;;;;;;12.80;4.07;;;;;;;19.60;64.16;101634.59;4989885;28;120233;-81
2022/06/10 07:47:13;;;;;;;16.05;4.63;;;;;;;19.74;63.42;101637.78;4972713;28;119375;-80
2022/06/10 07:49:39;;;;;;;17.67;4.32;;;;;;;19.80;63.68;101642.13;4977975;28;120151;-81
2022/06/10 07:52:06;;;;;;;15.75;4.20;;;;;;;19.86;63.90;101640.16;4988665;28;119949;-82
2022/06/10 07:54:34;;;;;;;17.67;4.80;;;;;;;19.98;63.69;101637.50;4972465;28;121524;-81
2022/06/10 07:57:00;;;;;;;12.00;3.85;;;;;;;20.00;63.43;101635.75;4994401;28;119459;-80
2022/06/10 07:59:26;;;;;;;17.55;4.45;;;;;;;20.08;62.31;101631.25;4982110;28;121024;-81
2022/06/10 08:01:52;;;;;;;16.17;3.83;;;;;;;20.27;62.73;101639.25;5000056;28;119527;-79
2022/06/10 08:04:18;;;;;;;15.90;3.42;;;;;;;20.37;61.57;101646.19;4955903;28;120112;-81
2022/06/10 08:06:46;;;;;;;13.98;3.50;;;;;;;20.48;61.26;101649.06;4940924;28;119755;-80
2022/06/10 08:09:13;;;;;;;11.55;3.17;;;;;;;20.61;61.30;101641.06;4974923;28;119629;-79
2022/06/10 08:11:39;;;;;;;16.73;3.67;;;;;;;20.76;60.91;101643.66;4972550;28;119673;-80
2022/06/10 08:14:06;;;;;;;11.73;3.78;;;;;;;20.86;60.13;101649.81;4981974;28;119877;-80
2022/06/10 08:16:34;;;;;;;11.57;3.85;;;;;;;20.95;60.39;101641.22;4990114;28;120114;-80
2022/06/10 08:19:00;;;;;;;11.25;3.72;;;;;;;21.06;60.63;101644.09;4992220;28;120792;-81
2022/06/10 08:22:32;;;;;;;17.20;3.55;;;;;;;21.19;60.05;101643.63;4976228;28;120235;-81
2022/06/10 08:24:16;;;;;;;9.43;3.33;;;;;;;21.28;59.84;101643.41;4994021;28;120180;-81
2022/06/10 08:26:42;;;;;;;13.00;3.25;;;;;;;21.37;59.60;101648.78;4995629;28;120100;-80
2022/06/10 08:29:10;;;;;;;10.23;3.25;;;;;;;21.44;59.22;101640.69;4975887;28;120133;-80
2022/06/10 08:31:36;;;;;;;13.02;3.10;;;;;;;21.52;58.62;101646.53;4988674;28;120027;-81
2022/06/10 08:34:03;;;;;;;10.05;2.47;;;;;;;21.59;58.73;101646.06;4994425;28;120432;-80
2022/06/10 08:36:30;;;;;;;10.32;2.90;;;;;;;21.64;57.49;101638.97;4979548;28;120464;-80
2022/06/10 08:38:56;;;;;;;7.63;2.50;;;;;;;21.74;56.93;101638.19;4995963;28;122174;-80
2022/06/10 08:41:31;;;;;;;13.02;2.95;;;;;;;21.80;56.70;101638.22;4958649;28;120673;-80
2022/06/10 08:44:11;;;;;;;15.23;2.90;;;;;;;21.89;57.98;101631.63;4973849;28;121090;-80
2022/06/10 08:46:57;;;;;;;11.88;2.58;;;;;;;21.96;56.20;101634.69;4978457;28;121892;-79
2022/06/10 08:50:03;;;;;;;9.23;2.10;;;;;;;22.08;55.56;101629.13;4968404;28;121397;-82
2022/06/10 08:52:43;;;;;;;7.97;2.20;;;;;;;22.18;55.39;101635.97;4990314;28;121376;-80
2022/06/10 08:55:11;;;;;;;9.05;2.15;;;;;;;22.24;52.49;101645.13;4982435;28;120872;-81
2022/06/10 08:57:41;;;;;;;10.40;2.42;;;;;;;22.21;53.28;101629.38;4973384;28;120551;-81
2022/06/10 09:00:20;;;;;;;6.75;1.92;;;;;;;22.33;53.21;101650.47;4998936;28;121589;-81
2022/06/10 09:02:54;;;;;;;10.55;2.60;;;;;;;22.34;53.74;101638.00;4990525;28;120815;-80
2022/06/10 09:05:48;;;;;;;10.45;2.22;;;;;;;22.43;52.75;101648.16;4990498;28;120649;-80
2022/06/10 09:08:22;;;;;;;12.30;2.50;;;;;;;22.43;52.38;101648.91;4972629;28;121829;-79
2022/06/10 09:11:15;;;;;;;9.23;1.90;;;;;;;22.47;53.15;101651.44;4983952;28;120508;-80
2022/06/10 09:13:55;;;;;;;11.02;2.90;;;;;;;22.49;54.41;101646.91;4984674;28;121934;-81
2022/06/10 09:16:29;;;;;;;13.15;2.92;;;;;;;22.57;54.52;101645.09;4984730;28;121344;-80
2022/06/10 09:19:26;;;;;;;11.35;2.45;;;;;;;22.66;54.41;101647.59;4974607;28;121672;-79
2022/06/10 09:22:20;;;;;;;6.80;2.25;;;;;;;22.73;54.67;101646.34;4969743;28;123532;-80
2022/06/10 09:24:54;;;;;;;12.23;2.65;;;;;;;22.79;54.36;101644.28;4972775;28;121259;-81
2022/06/10 09:27:38;;;;;;;11.30;2.50;;;;;;;22.85;54.03;101647.84;4974628;28;121251;-81
2022/06/10 09:30:11;;;;;;;9.90;2.30;;;;;;;22.86;53.79;101638.19;4974297;28;121496;-80
2022/06/10 09:32:44;;;;;;;11.15;2.40;;;;;;;22.94;53.13;101649.59;4988031;28;121529;-82
2022/06/10 09:35:37;;;;;;;14.43;3.93;;;;;;;22.96;53.68;101649.84;4979914;28;121345;-82
2022/06/10 09:38:22;;;;;;;10.85;2.60;;;;;;;22.92;52.41;101646.53;4989219;28;121585;-80
2022/06/10 09:41:05;;;;;;;14.07;2.55;;;;;;;22.96;53.30;101644.25;4991528;28;121800;-82
2022/06/10 09:43:34;;;;;;;10.90;2.17;;;;;;;22.97;53.06;101642.97;4988223;28;121818;-80
2022/06/10 09:46:07;;;;;;;11.45;2.13;;;;;;;22.97;52.26;101648.56;4990395;28;121957;-81
2022/06/10 09:48:50;;;;;;;7.07;2.50;;;;;;;22.98;52.88;101638.91;4989861;28;122647;-80
2022/06/10 09:51:27;;;;;;;11.90;2.53;;;;;;;22.99;52.87;101642.47;4992456;28;121601;-81
2022/06/10 09:53:59;;;;;;;20.42;3.08;;;;;;;22.98;53.43;101647.31;4973710;28;121785;-80
2022/06/10 09:56:35;;;;;;;14.57;3.13;;;;;;;22.97;53.42;101642.97;4993725;28;122527;-79
2022/06/10 09:59:22;;;;;;;14.65;3.42;;;;;;;23.03;52.49;101651.34;4984379;28;121256;-81
2022/06/10 10:02:33;;;;;;;13.02;2.72;;;;;;;23.00;53.22;101650.34;4967146;28;122473;-81
2022/06/10 10:05:06;;;;;;;13.23;2.97;;;;;;;23.06;52.49;101651.06;4949613;28;123652;-79
2022/06/10 10:07:52;;;;;;;;;;;;;;;23.03;52.84;101654.91;4970026;28;121207;-80
2022/06/10 10:10:45;;;;;;;12.68;2.88;;;;;;;23.02;52.92;101653.38;4986810;28;121274;-81
2022/06/10 10:13:55;;;;;;;11.65;2.47;;;;;;;22.90;52.37;101660.28;4973334;28;122197;-80
2022/06/10 10:16:39;;;;;;;13.63;2.88;;;;;;;22.82;52.47;101659.28;4950392;28;121199;-80
2022/06/10 10:19:19;;;;;;;9.73;2.60;;;;;;;22.73;52.92;101665.16;4972938;28;121159;-81
2022/06/10 10:22:14;;;;;;;14.70;3.20;;;;;;;22.62;53.42;101663.88;4977594;28;121568;-82
2022/06/10 10:24:43;;;;;;;12.43;2.83;;;;;;;22.53;52.41;101669.75;4986764;28;121020;-80
2022/06/10 10:27:20;;;;;;;11.32;3.05;;;;;;;22.46;53.01;101670.25;4991145;28;120683;-81
2022/06/10 10:29:51;;;;;;;20.77;3.55;;;;;;;22.37;53.29;101662.13;4994971;28;120849;-80
2022/06/10 10:32:23;;;;;;;12.70;3.17;;;;;;;22.37;53.51;101664.94;5008896;27;120492;-80
2022/06/10 10:35:03;;;;;;;11.70;2.75;;;;;;;22.31;53.69;101656.56;4986381;28;121905;-81
2022/06/10 10:37:36;;;;;;;13.38;3.15;;;;;;;22.32;54.24;101657.31;4984898;28;120518;-81
2022/06/10 10:40:18;;;;;;;14.00;2.95;;;;;;;22.32;53.79;101651.72;4985825;28;120398;-80
2022/06/10 10:42:45;;;;;;;14.80;3.20;;;;;;;22.27;53.08;101658.84;4981068;28;120381;-81
2022/06/10 10:45:32;;;;;;;11.82;3.10;;;;;;;22.26;53.24;101653.78;4993957;28;120891;-80
2022/06/10 10:48:21;;;;;;;12.20;2.75;;;;;;;22.24;53.95;101657.09;4991322;28;121415;-80
2022/06/10 10:51:06;;;;;;;15.63;3.55;;;;;;;22.25;53.55;101663.44;4974924;28;120385;-82
2022/06/10 10:53:38;;;;;;;13.30;3.00;;;;;;;22.29;53.92;101659.09;4979007;28;120664;-81
2022/06/10 10:56:05;;;;;;;12.95;2.80;;;;;;;22.33;54.23;101661.63;4986874;28;123876;-81
2022/06/10 10:58:38;;;;;;;11.43;2.60;;;;;;;22.39;54.23;101667.22;4963831;28;121284;-80
2022/06/10 11:01:08;;;;;;;12.20;3.15;;;;;;;22.44;53.01;101663.66;4965599;28;122718;-81
2022/06/10 11:03:50;;;;;;;9.93;2.78;;;;;;;22.44;53.40;101666.44;4976356;28;121329;-81
2022/06/10 11:06:32;;;;;;;12.80;2.78;;;;;;;22.44;53.32;101656.03;4980545;28;121191;-81
2022/06/10 11:08:58;;;;;;;9.57;2.58;;;;;;;22.41;53.01;101653.50;4999445;28;120633;-80
2022/06/10 11:11:31;;;;;;;14.95;3.17;;;;;;;22.28;53.35;101645.63;4965360;28;120539;-80
2022/06/10 11:14:01;;;;;;;14.40;2.78;;;;;;;22.31;53.66;101655.81;4979298;28;120893;-79
2022/06/10 11:16:41;;;;;;;12.75;3.00;;;;;;;22.32;53.67;101657.31;4978053;28;121637;-81
2022/06/10 11:19:32;;;;;;;15.38;2.70;;;;;;;22.38;53.07;101657.31;4978104;28;120798;-81
2022/06/10 11:22:01;;;;;;;13.00;2.72;;;;;;;22.39;52.68;101662.38;4963070;28;120695;-81
2022/06/10 11:24:36;;;;;;;12.13;2.25;;;;;;;22.39;52.60;101651.22;4983475;28;121561;-81
2022/06/10 11:27:23;;;;;;;9.30;2.17;;;;;;;22.39;52.29;101653.25;4984796;28;120732;-81
2022/06/10 11:30:18;;;;;;;11.93;2.95;;;;;;;22.37;52.62;101656.56;4976921;28;122022;-81
2022/06/10 11:32:50;;;;;;;14.55;4.05;;;;;;;22.41;53.26;101654.25;4985080;28;122023;-80
2022/06/10 11:35:24;;;;;;;16.05;3.38;;;;;;;22.46;53.56;101663.91;4977681;28;120659;-80
2022/06/10 11:38:01;;;;;;;13.75;3.10;;;;;;;22.50;53.46;101651.22;4979514;28;121141;-80